sensor_id;sensor_type;location;lat;lon;timestamp;temperature;humidity
7666;DHT22;3875;46.562;4.898;2023-05-19T00:01:58;14.90;75.00
7666;DHT22;3875;46.562;4.898;2023-05-19T00:04:30;14.90;75.10
7666;DHT22;3875;46.562;4.898;2023-05-19T00:06:58;14.80;75.30
7666;DHT22;3875;46.562;4.898;2023-05-19T00:09:24;14.80;75.30
7666;DHT22;3875;46.562;4.898;2023-05-19T00:11:50;14.80;75.40
7666;DHT22;3875;46.562;4.898;2023-05-19T00:14:16;14.80;75.40
7666;DHT22;3875;46.562;4.898;2023-05-19T00:16:42;14.70;75.70
7666;DHT22;3875;46.562;4.898;2023-05-19T00:19:09;14.70;75.80
7666;DHT22;3875;46.562;4.898;2023-05-19T00:21:35;14.70;75.90
7666;DHT22;3875;46.562;4.898;2023-05-19T00:24:02;14.60;76.00
7666;DHT22;3875;46.562;4.898;2023-05-19T00:26:28;14.60;76.10
7666;DHT22;3875;46.562;4.898;2023-05-19T00:28:54;14.60;76.10
7666;DHT22;3875;46.562;4.898;2023-05-19T00:31:19;14.60;76.10
7666;DHT22;3875;46.562;4.898;2023-05-19T00:33:45;14.60;76.10
7666;DHT22;3875;46.562;4.898;2023-05-19T00:36:11;14.50;76.10
7666;DHT22;3875;46.562;4.898;2023-05-19T00:38:37;14.50;76.20
7666;DHT22;3875;46.562;4.898;2023-05-19T00:41:04;14.50;76.30
7666;DHT22;3875;46.562;4.898;2023-05-19T00:43:30;14.50;76.40
7666;DHT22;3875;46.562;4.898;2023-05-19T00:45:58;14.40;76.50
7666;DHT22;3875;46.562;4.898;2023-05-19T00:48:25;14.40;76.50
7666;DHT22;3875;46.562;4.898;2023-05-19T00:50:52;14.30;76.60
7666;DHT22;3875;46.562;4.898;2023-05-19T00:53:19;14.30;76.90
7666;DHT22;3875;46.562;4.898;2023-05-19T00:55:46;14.30;77.00
7666;DHT22;3875;46.562;4.898;2023-05-19T00:58:13;14.20;76.90
7666;DHT22;3875;46.562;4.898;2023-05-19T01:00:39;14.20;77.10
7666;DHT22;3875;46.562;4.898;2023-05-19T01:03:06;14.20;77.20
7666;DHT22;3875;46.562;4.898;2023-05-19T01:05:41;14.10;77.30
7666;DHT22;3875;46.562;4.898;2023-05-19T01:08:09;14.10;77.20
7666;DHT22;3875;46.562;4.898;2023-05-19T01:10:35;14.10;77.20
7666;DHT22;3875;46.562;4.898;2023-05-19T01:13:02;14.10;77.20
7666;DHT22;3875;46.562;4.898;2023-05-19T01:15:30;14.10;77.30
7666;DHT22;3875;46.562;4.898;2023-05-19T01:18:07;14.10;77.40
7666;DHT22;3875;46.562;4.898;2023-05-19T01:20:40;14.10;77.30
7666;DHT22;3875;46.562;4.898;2023-05-19T01:23:19;14.10;77.30
7666;DHT22;3875;46.562;4.898;2023-05-19T01:31:18;14.00;77.80
7666;DHT22;3875;46.562;4.898;2023-05-19T01:33:45;14.00;78.10
7666;DHT22;3875;46.562;4.898;2023-05-19T01:36:12;13.90;78.00
7666;DHT22;3875;46.562;4.898;2023-05-19T01:38:39;13.90;78.20
7666;DHT22;3875;46.562;4.898;2023-05-19T01:41:06;13.90;78.30
7666;DHT22;3875;46.562;4.898;2023-05-19T01:43:33;13.90;78.30
7666;DHT22;3875;46.562;4.898;2023-05-19T01:46:00;13.90;78.30
7666;DHT22;3875;46.562;4.898;2023-05-19T01:48:27;13.90;78.50
7666;DHT22;3875;46.562;4.898;2023-05-19T01:50:54;13.90;78.30
7666;DHT22;3875;46.562;4.898;2023-05-19T01:53:22;13.90;78.40
7666;DHT22;3875;46.562;4.898;2023-05-19T01:55:50;13.80;78.50
7666;DHT22;3875;46.562;4.898;2023-05-19T02:02:01;13.80;78.60
7666;DHT22;3875;46.562;4.898;2023-05-19T02:04:50;13.70;78.90
7666;DHT22;3875;46.562;4.898;2023-05-19T02:07:29;13.70;78.90
7666;DHT22;3875;46.562;4.898;2023-05-19T02:10:10;13.70;78.80
7666;DHT22;3875;46.562;4.898;2023-05-19T02:12:39;13.70;78.70
7666;DHT22;3875;46.562;4.898;2023-05-19T02:15:17;13.70;78.70
7666;DHT22;3875;46.562;4.898;2023-05-19T02:17:45;13.70;78.60
7666;DHT22;3875;46.562;4.898;2023-05-19T02:20:15;13.70;78.60
7666;DHT22;3875;46.562;4.898;2023-05-19T02:22:41;13.70;78.60
7666;DHT22;3875;46.562;4.898;2023-05-19T02:25:07;13.60;78.80
7666;DHT22;3875;46.562;4.898;2023-05-19T02:27:34;13.60;78.80
7666;DHT22;3875;46.562;4.898;2023-05-19T02:30:01;13.60;78.60
7666;DHT22;3875;46.562;4.898;2023-05-19T02:32:27;13.60;78.70
7666;DHT22;3875;46.562;4.898;2023-05-19T02:34:52;13.50;78.80
7666;DHT22;3875;46.562;4.898;2023-05-19T02:37:21;13.50;78.80
7666;DHT22;3875;46.562;4.898;2023-05-19T02:39:50;13.50;78.80
7666;DHT22;3875;46.562;4.898;2023-05-19T02:42:15;13.50;78.70
7666;DHT22;3875;46.562;4.898;2023-05-19T02:44:44;13.50;78.70
7666;DHT22;3875;46.562;4.898;2023-05-19T02:47:10;13.50;78.60
7666;DHT22;3875;46.562;4.898;2023-05-19T02:49:36;13.50;78.80
7666;DHT22;3875;46.562;4.898;2023-05-19T02:52:03;13.50;78.60
7666;DHT22;3875;46.562;4.898;2023-05-19T02:54:33;13.50;78.70
7666;DHT22;3875;46.562;4.898;2023-05-19T02:56:58;13.40;78.70
7666;DHT22;3875;46.562;4.898;2023-05-19T02:59:24;13.40;78.70
7666;DHT22;3875;46.562;4.898;2023-05-19T03:01:58;13.40;78.80
7666;DHT22;3875;46.562;4.898;2023-05-19T03:04:24;13.30;78.90
7666;DHT22;3875;46.562;4.898;2023-05-19T03:06:50;13.30;78.80
7666;DHT22;3875;46.562;4.898;2023-05-19T03:09:15;13.30;78.80
7666;DHT22;3875;46.562;4.898;2023-05-19T03:11:41;13.30;78.70
7666;DHT22;3875;46.562;4.898;2023-05-19T03:14:07;13.30;78.80
7666;DHT22;3875;46.562;4.898;2023-05-19T03:16:36;13.20;78.80
7666;DHT22;3875;46.562;4.898;2023-05-19T03:19:02;13.20;78.70
7666;DHT22;3875;46.562;4.898;2023-05-19T03:21:27;13.20;78.70
7666;DHT22;3875;46.562;4.898;2023-05-19T03:23:53;13.20;78.80
7666;DHT22;3875;46.562;4.898;2023-05-19T03:26:19;13.20;78.70
7666;DHT22;3875;46.562;4.898;2023-05-19T03:28:44;13.10;78.80
7666;DHT22;3875;46.562;4.898;2023-05-19T03:31:10;13.10;78.70
7666;DHT22;3875;46.562;4.898;2023-05-19T03:33:36;13.10;78.90
7666;DHT22;3875;46.562;4.898;2023-05-19T03:36:01;13.00;78.80
7666;DHT22;3875;46.562;4.898;2023-05-19T03:38:28;13.00;78.80
7666;DHT22;3875;46.562;4.898;2023-05-19T03:40:53;13.00;78.70
7666;DHT22;3875;46.562;4.898;2023-05-19T03:43:19;13.00;78.70
7666;DHT22;3875;46.562;4.898;2023-05-19T03:45:45;12.90;78.80
7666;DHT22;3875;46.562;4.898;2023-05-19T03:48:10;12.80;79.00
7666;DHT22;3875;46.562;4.898;2023-05-19T03:50:37;12.80;79.10
7666;DHT22;3875;46.562;4.898;2023-05-19T03:53:02;12.80;79.10
7666;DHT22;3875;46.562;4.898;2023-05-19T03:55:28;12.80;79.10
7666;DHT22;3875;46.562;4.898;2023-05-19T03:57:54;12.70;79.10
7666;DHT22;3875;46.562;4.898;2023-05-19T04:00:21;12.70;79.10
7666;DHT22;3875;46.562;4.898;2023-05-19T04:02:46;12.70;79.10
7666;DHT22;3875;46.562;4.898;2023-05-19T04:05:13;12.70;79.10
7666;DHT22;3875;46.562;4.898;2023-05-19T04:07:39;12.60;79.00
7666;DHT22;3875;46.562;4.898;2023-05-19T04:10:06;12.60;79.00
7666;DHT22;3875;46.562;4.898;2023-05-19T04:12:32;12.60;78.90
7666;DHT22;3875;46.562;4.898;2023-05-19T04:14:58;12.60;78.90
7666;DHT22;3875;46.562;4.898;2023-05-19T04:17:24;12.60;78.90
7666;DHT22;3875;46.562;4.898;2023-05-19T04:19:53;12.60;78.80
7666;DHT22;3875;46.562;4.898;2023-05-19T04:22:19;12.60;78.80
7666;DHT22;3875;46.562;4.898;2023-05-19T04:24:44;12.60;78.70
7666;DHT22;3875;46.562;4.898;2023-05-19T04:27:11;12.60;78.70
7666;DHT22;3875;46.562;4.898;2023-05-19T04:29:37;12.60;78.60
7666;DHT22;3875;46.562;4.898;2023-05-19T04:32:04;12.60;78.70
7666;DHT22;3875;46.562;4.898;2023-05-19T04:34:33;12.60;78.50
7666;DHT22;3875;46.562;4.898;2023-05-19T04:37:00;12.60;78.60
7666;DHT22;3875;46.562;4.898;2023-05-19T04:39:26;12.60;78.60
7666;DHT22;3875;46.562;4.898;2023-05-19T04:41:51;12.70;78.30
7666;DHT22;3875;46.562;4.898;2023-05-19T04:44:19;12.60;78.30
7666;DHT22;3875;46.562;4.898;2023-05-19T04:46:45;12.60;78.50
7666;DHT22;3875;46.562;4.898;2023-05-19T04:49:10;12.70;78.50
7666;DHT22;3875;46.562;4.898;2023-05-19T04:51:39;12.60;78.40
7666;DHT22;3875;46.562;4.898;2023-05-19T04:54:09;12.60;78.50
7666;DHT22;3875;46.562;4.898;2023-05-19T04:56:35;12.70;78.50
7666;DHT22;3875;46.562;4.898;2023-05-19T04:59:01;12.70;78.40
7666;DHT22;3875;46.562;4.898;2023-05-19T05:01:26;12.70;78.50
7666;DHT22;3875;46.562;4.898;2023-05-19T05:03:53;12.70;78.40
7666;DHT22;3875;46.562;4.898;2023-05-19T05:06:20;12.70;78.50
7666;DHT22;3875;46.562;4.898;2023-05-19T05:08:47;12.70;78.50
7666;DHT22;3875;46.562;4.898;2023-05-19T05:11:13;12.70;78.70
7666;DHT22;3875;46.562;4.898;2023-05-19T05:13:39;12.70;78.60
7666;DHT22;3875;46.562;4.898;2023-05-19T05:16:05;12.80;78.50
7666;DHT22;3875;46.562;4.898;2023-05-19T05:18:33;12.90;78.50
7666;DHT22;3875;46.562;4.898;2023-05-19T05:20:59;12.90;78.20
7666;DHT22;3875;46.562;4.898;2023-05-19T05:23:25;13.00;78.10
7666;DHT22;3875;46.562;4.898;2023-05-19T05:25:51;13.00;78.00
7666;DHT22;3875;46.562;4.898;2023-05-19T05:28:17;13.10;78.00
7666;DHT22;3875;46.562;4.898;2023-05-19T05:30:43;13.10;78.00
7666;DHT22;3875;46.562;4.898;2023-05-19T05:33:09;13.20;78.00
7666;DHT22;3875;46.562;4.898;2023-05-19T05:35:35;13.40;77.90
7666;DHT22;3875;46.562;4.898;2023-05-19T05:38:01;13.40;77.50
7666;DHT22;3875;46.562;4.898;2023-05-19T05:40:27;13.50;77.40
7666;DHT22;3875;46.562;4.898;2023-05-19T05:42:53;13.60;77.70
7666;DHT22;3875;46.562;4.898;2023-05-19T05:45:23;13.70;77.30
7666;DHT22;3875;46.562;4.898;2023-05-19T05:47:50;13.80;77.20
7666;DHT22;3875;46.562;4.898;2023-05-19T05:50:16;13.80;77.00
7666;DHT22;3875;46.562;4.898;2023-05-19T05:52:45;13.90;77.10
7666;DHT22;3875;46.562;4.898;2023-05-19T05:55:12;14.00;77.00
7666;DHT22;3875;46.562;4.898;2023-05-19T05:57:37;14.20;76.60
7666;DHT22;3875;46.562;4.898;2023-05-19T06:00:06;14.30;76.60
7666;DHT22;3875;46.562;4.898;2023-05-19T06:02:41;14.50;76.10
7666;DHT22;3875;46.562;4.898;2023-05-19T06:05:08;14.70;75.90
7666;DHT22;3875;46.562;4.898;2023-05-19T06:07:37;15.00;75.00
7666;DHT22;3875;46.562;4.898;2023-05-19T06:10:03;15.30;74.80
7666;DHT22;3875;46.562;4.898;2023-05-19T06:12:29;15.60;74.20
7666;DHT22;3875;46.562;4.898;2023-05-19T06:14:55;15.70;73.00
7666;DHT22;3875;46.562;4.898;2023-05-19T06:17:20;15.80;72.40
7666;DHT22;3875;46.562;4.898;2023-05-19T06:19:46;15.80;72.20
7666;DHT22;3875;46.562;4.898;2023-05-19T06:22:11;15.80;72.70
7666;DHT22;3875;46.562;4.898;2023-05-19T06:24:37;16.00;72.80
7666;DHT22;3875;46.562;4.898;2023-05-19T06:27:03;16.10;72.80
7666;DHT22;3875;46.562;4.898;2023-05-19T06:29:28;16.30;72.30
7666;DHT22;3875;46.562;4.898;2023-05-19T06:31:54;16.50;71.40
7666;DHT22;3875;46.562;4.898;2023-05-19T06:34:20;16.50;71.50
7666;DHT22;3875;46.562;4.898;2023-05-19T06:36:46;16.40;70.90
7666;DHT22;3875;46.562;4.898;2023-05-19T06:39:11;16.30;70.70
7666;DHT22;3875;46.562;4.898;2023-05-19T06:41:37;16.30;70.70
7666;DHT22;3875;46.562;4.898;2023-05-19T06:44:05;16.40;71.60
7666;DHT22;3875;46.562;4.898;2023-05-19T06:46:30;16.50;70.40
7666;DHT22;3875;46.562;4.898;2023-05-19T06:48:56;16.50;70.80
7666;DHT22;3875;46.562;4.898;2023-05-19T06:51:22;16.50;70.10
7666;DHT22;3875;46.562;4.898;2023-05-19T06:53:48;16.60;70.60
7666;DHT22;3875;46.562;4.898;2023-05-19T06:56:13;16.80;71.50
7666;DHT22;3875;46.562;4.898;2023-05-19T06:58:40;17.00;70.90
7666;DHT22;3875;46.562;4.898;2023-05-19T07:01:06;17.00;70.00
7666;DHT22;3875;46.562;4.898;2023-05-19T07:03:32;17.00;70.10
7666;DHT22;3875;46.562;4.898;2023-05-19T07:05:57;17.00;69.90
7666;DHT22;3875;46.562;4.898;2023-05-19T07:08:23;17.00;69.50
7666;DHT22;3875;46.562;4.898;2023-05-19T07:10:48;17.00;69.70
7666;DHT22;3875;46.562;4.898;2023-05-19T07:13:14;17.20;70.00
7666;DHT22;3875;46.562;4.898;2023-05-19T07:15:40;17.40;70.20
7666;DHT22;3875;46.562;4.898;2023-05-19T07:18:05;17.50;68.50
7666;DHT22;3875;46.562;4.898;2023-05-19T07:20:31;17.50;69.00
7666;DHT22;3875;46.562;4.898;2023-05-19T07:22:57;17.60;68.40
7666;DHT22;3875;46.562;4.898;2023-05-19T07:25:22;17.60;68.40
7666;DHT22;3875;46.562;4.898;2023-05-19T07:27:48;17.60;68.90
7666;DHT22;3875;46.562;4.898;2023-05-19T07:30:14;17.90;69.50
7666;DHT22;3875;46.562;4.898;2023-05-19T07:32:39;18.00;67.40
7666;DHT22;3875;46.562;4.898;2023-05-19T07:35:05;18.00;67.30
7666;DHT22;3875;46.562;4.898;2023-05-19T07:37:31;17.90;67.10
7666;DHT22;3875;46.562;4.898;2023-05-19T07:39:56;18.00;67.70
7666;DHT22;3875;46.562;4.898;2023-05-19T07:42:22;18.10;68.20
7666;DHT22;3875;46.562;4.898;2023-05-19T07:44:48;18.30;67.20
7666;DHT22;3875;46.562;4.898;2023-05-19T07:47:13;18.20;66.60
7666;DHT22;3875;46.562;4.898;2023-05-19T07:49:39;18.10;66.50
7666;DHT22;3875;46.562;4.898;2023-05-19T07:52:05;18.40;67.50
7666;DHT22;3875;46.562;4.898;2023-05-19T07:54:31;18.70;67.30
7666;DHT22;3875;46.562;4.898;2023-05-19T07:56:56;18.90;66.80
7666;DHT22;3875;46.562;4.898;2023-05-19T07:59:22;19.00;65.50
7666;DHT22;3875;46.562;4.898;2023-05-19T08:01:48;19.10;65.60
7666;DHT22;3875;46.562;4.898;2023-05-19T08:04:14;19.10;65.70
7666;DHT22;3875;46.562;4.898;2023-05-19T08:06:40;19.40;66.60
7666;DHT22;3875;46.562;4.898;2023-05-19T08:09:07;19.60;65.60
7666;DHT22;3875;46.562;4.898;2023-05-19T08:11:33;19.60;65.10
7666;DHT22;3875;46.562;4.898;2023-05-19T08:13:58;19.50;64.30
7666;DHT22;3875;46.562;4.898;2023-05-19T08:16:24;19.40;64.90
7666;DHT22;3875;46.562;4.898;2023-05-19T08:18:50;19.40;65.80
7666;DHT22;3875;46.562;4.898;2023-05-19T08:21:16;19.60;65.40
7666;DHT22;3875;46.562;4.898;2023-05-19T08:23:41;19.90;64.80
7666;DHT22;3875;46.562;4.898;2023-05-19T08:26:07;19.90;64.30
7666;DHT22;3875;46.562;4.898;2023-05-19T08:28:33;19.90;64.70
7666;DHT22;3875;46.562;4.898;2023-05-19T08:30:58;20.10;64.20
7666;DHT22;3875;46.562;4.898;2023-05-19T08:33:24;19.90;63.00
7666;DHT22;3875;46.562;4.898;2023-05-19T08:35:50;19.80;63.80
7666;DHT22;3875;46.562;4.898;2023-05-19T08:38:15;19.90;63.70
7666;DHT22;3875;46.562;4.898;2023-05-19T08:40:41;20.10;63.40
7666;DHT22;3875;46.562;4.898;2023-05-19T08:43:07;19.90;63.30
7666;DHT22;3875;46.562;4.898;2023-05-19T08:45:34;19.90;63.60
7666;DHT22;3875;46.562;4.898;2023-05-19T08:48:00;20.00;63.20
7666;DHT22;3875;46.562;4.898;2023-05-19T08:50:29;20.10;63.10
7666;DHT22;3875;46.562;4.898;2023-05-19T08:53:03;20.20;63.40
7666;DHT22;3875;46.562;4.898;2023-05-19T08:58:04;20.40;62.20
7666;DHT22;3875;46.562;4.898;2023-05-19T09:00:29;20.30;62.60
7666;DHT22;3875;46.562;4.898;2023-05-19T09:02:55;20.40;62.90
7666;DHT22;3875;46.562;4.898;2023-05-19T09:05:22;20.40;61.50
7666;DHT22;3875;46.562;4.898;2023-05-19T09:07:47;20.40;63.00
7666;DHT22;3875;46.562;4.898;2023-05-19T09:10:13;20.60;63.10
7666;DHT22;3875;46.562;4.898;2023-05-19T09:12:44;20.90;62.20
7666;DHT22;3875;46.562;4.898;2023-05-19T09:15:11;20.90;60.70
7666;DHT22;3875;46.562;4.898;2023-05-19T09:17:39;20.70;61.40
7666;DHT22;3875;46.562;4.898;2023-05-19T09:20:05;20.80;61.90
7666;DHT22;3875;46.562;4.898;2023-05-19T09:22:44;21.00;62.20
7666;DHT22;3875;46.562;4.898;2023-05-19T09:25:24;21.20;61.30
7666;DHT22;3875;46.562;4.898;2023-05-19T09:27:50;20.90;59.80
7666;DHT22;3875;46.562;4.898;2023-05-19T09:30:18;20.80;60.40
7666;DHT22;3875;46.562;4.898;2023-05-19T09:32:44;20.80;60.50
7666;DHT22;3875;46.562;4.898;2023-05-19T09:35:13;20.90;61.30
7666;DHT22;3875;46.562;4.898;2023-05-19T09:37:44;21.00;59.60
7666;DHT22;3875;46.562;4.898;2023-05-19T09:40:13;21.10;59.70
7666;DHT22;3875;46.562;4.898;2023-05-19T09:42:40;21.40;60.40
7666;DHT22;3875;46.562;4.898;2023-05-19T09:45:07;21.50;59.80
7666;DHT22;3875;46.562;4.898;2023-05-19T09:47:36;21.80;60.20
7666;DHT22;3875;46.562;4.898;2023-05-19T09:50:10;21.70;58.60
7666;DHT22;3875;46.562;4.898;2023-05-19T09:52:42;21.70;60.00
7666;DHT22;3875;46.562;4.898;2023-05-19T09:55:12;21.90;58.90
7666;DHT22;3875;46.562;4.898;2023-05-19T09:57:38;21.70;58.20
7666;DHT22;3875;46.562;4.898;2023-05-19T10:00:06;21.40;58.90
7666;DHT22;3875;46.562;4.898;2023-05-19T10:02:43;21.30;59.00
7666;DHT22;3875;46.562;4.898;2023-05-19T10:05:16;21.30;59.60
7666;DHT22;3875;46.562;4.898;2023-05-19T10:07:54;21.40;59.40
7666;DHT22;3875;46.562;4.898;2023-05-19T10:10:20;21.70;59.10
7666;DHT22;3875;46.562;4.898;2023-05-19T10:12:49;21.80;58.70
7666;DHT22;3875;46.562;4.898;2023-05-19T10:15:17;21.90;58.70
7666;DHT22;3875;46.562;4.898;2023-05-19T10:17:43;22.10;59.50
7666;DHT22;3875;46.562;4.898;2023-05-19T10:20:14;22.40;58.20
7666;DHT22;3875;46.562;4.898;2023-05-19T10:22:43;22.60;57.70
7666;DHT22;3875;46.562;4.898;2023-05-19T10:25:10;22.60;57.60
7666;DHT22;3875;46.562;4.898;2023-05-19T10:27:40;22.80;58.00
7666;DHT22;3875;46.562;4.898;2023-05-19T10:30:19;22.80;58.20
7666;DHT22;3875;46.562;4.898;2023-05-19T10:32:46;22.70;57.40
7666;DHT22;3875;46.562;4.898;2023-05-19T10:35:23;22.60;58.00
7666;DHT22;3875;46.562;4.898;2023-05-19T10:37:54;22.20;58.20
7666;DHT22;3875;46.562;4.898;2023-05-19T10:40:32;22.40;58.90
7666;DHT22;3875;46.562;4.898;2023-05-19T10:45:29;22.60;57.90
7666;DHT22;3875;46.562;4.898;2023-05-19T10:47:58;22.60;57.70
7666;DHT22;3875;46.562;4.898;2023-05-19T10:50:25;23.00;57.50
7666;DHT22;3875;46.562;4.898;2023-05-19T10:52:55;23.10;57.00
7666;DHT22;3875;46.562;4.898;2023-05-19T10:55:43;22.60;57.20
7666;DHT22;3875;46.562;4.898;2023-05-19T10:58:10;22.90;56.70
7666;DHT22;3875;46.562;4.898;2023-05-19T11:00:38;22.90;57.00
7666;DHT22;3875;46.562;4.898;2023-05-19T11:03:13;23.20;56.80
7666;DHT22;3875;46.562;4.898;2023-05-19T11:05:40;23.60;57.40
7666;DHT22;3875;46.562;4.898;2023-05-19T11:08:06;24.00;56.30
7666;DHT22;3875;46.562;4.898;2023-05-19T11:10:33;24.00;55.40
7666;DHT22;3875;46.562;4.898;2023-05-19T11:12:58;23.70;55.30
7666;DHT22;3875;46.562;4.898;2023-05-19T11:15:26;23.70;56.90
7666;DHT22;3875;46.562;4.898;2023-05-19T11:17:52;23.80;56.70
7666;DHT22;3875;46.562;4.898;2023-05-19T11:20:28;24.00;57.20
7666;DHT22;3875;46.562;4.898;2023-05-19T11:23:06;23.90;56.20
7666;DHT22;3875;46.562;4.898;2023-05-19T11:25:43;24.00;56.70
7666;DHT22;3875;46.562;4.898;2023-05-19T11:28:15;24.00;55.80
7666;DHT22;3875;46.562;4.898;2023-05-19T11:30:41;23.90;56.00
7666;DHT22;3875;46.562;4.898;2023-05-19T11:33:08;24.20;54.90
7666;DHT22;3875;46.562;4.898;2023-05-19T11:35:34;24.30;54.20
7666;DHT22;3875;46.562;4.898;2023-05-19T11:38:01;24.20;55.20
7666;DHT22;3875;46.562;4.898;2023-05-19T11:40:28;24.10;54.60
7666;DHT22;3875;46.562;4.898;2023-05-19T11:42:54;24.40;55.20
7666;DHT22;3875;46.562;4.898;2023-05-19T11:45:26;24.40;53.50
7666;DHT22;3875;46.562;4.898;2023-05-19T11:47:54;24.10;53.50
7666;DHT22;3875;46.562;4.898;2023-05-19T11:50:21;24.00;54.80
7666;DHT22;3875;46.562;4.898;2023-05-19T11:52:47;24.10;54.40
7666;DHT22;3875;46.562;4.898;2023-05-19T11:55:19;24.10;54.40
7666;DHT22;3875;46.562;4.898;2023-05-19T11:58:03;24.40;54.50
7666;DHT22;3875;46.562;4.898;2023-05-19T12:00:33;24.40;54.60
7666;DHT22;3875;46.562;4.898;2023-05-19T12:03:01;24.50;54.50
7666;DHT22;3875;46.562;4.898;2023-05-19T12:05:27;24.90;54.70
7666;DHT22;3875;46.562;4.898;2023-05-19T12:07:53;25.00;53.90
7666;DHT22;3875;46.562;4.898;2023-05-19T12:10:26;24.90;54.60
7666;DHT22;3875;46.562;4.898;2023-05-19T12:12:53;24.50;53.70
7666;DHT22;3875;46.562;4.898;2023-05-19T12:15:23;24.10;54.60
7666;DHT22;3875;46.562;4.898;2023-05-19T12:20:16;23.00;56.60
7666;DHT22;3875;46.562;4.898;2023-05-19T12:22:43;22.90;56.30
7666;DHT22;3875;46.562;4.898;2023-05-19T12:25:09;22.80;56.40
7666;DHT22;3875;46.562;4.898;2023-05-19T12:27:35;23.10;56.80
7666;DHT22;3875;46.562;4.898;2023-05-19T12:30:03;23.80;58.00
7666;DHT22;3875;46.562;4.898;2023-05-19T12:32:32;24.30;56.40
7666;DHT22;3875;46.562;4.898;2023-05-19T12:35:02;24.20;56.00
7666;DHT22;3875;46.562;4.898;2023-05-19T12:37:29;23.70;55.80
7666;DHT22;3875;46.562;4.898;2023-05-19T12:39:55;23.30;56.50
7666;DHT22;3875;46.562;4.898;2023-05-19T12:42:22;23.30;56.90
7666;DHT22;3875;46.562;4.898;2023-05-19T12:44:52;23.90;56.30
7666;DHT22;3875;46.562;4.898;2023-05-19T12:47:19;23.60;55.90
7666;DHT22;3875;46.562;4.898;2023-05-19T12:50:05;23.00;56.90
7666;DHT22;3875;46.562;4.898;2023-05-19T12:55:07;24.20;55.50
7666;DHT22;3875;46.562;4.898;2023-05-19T12:57:34;24.20;56.00
7666;DHT22;3875;46.562;4.898;2023-05-19T13:00:12;23.70;55.70
7666;DHT22;3875;46.562;4.898;2023-05-19T13:05:20;22.70;58.50
7666;DHT22;3875;46.562;4.898;2023-05-19T13:08:11;22.60;59.40
7666;DHT22;3875;46.562;4.898;2023-05-19T13:10:39;22.60;58.70
7666;DHT22;3875;46.562;4.898;2023-05-19T13:13:06;22.40;58.90
7666;DHT22;3875;46.562;4.898;2023-05-19T13:15:35;23.10;57.80
7666;DHT22;3875;46.562;4.898;2023-05-19T13:18:04;23.50;57.50
7666;DHT22;3875;46.562;4.898;2023-05-19T13:20:30;23.60;57.50
7666;DHT22;3875;46.562;4.898;2023-05-19T13:22:57;24.00;57.40
7666;DHT22;3875;46.562;4.898;2023-05-19T13:25:23;24.20;56.30
7666;DHT22;3875;46.562;4.898;2023-05-19T13:27:48;24.20;56.40
7666;DHT22;3875;46.562;4.898;2023-05-19T13:30:16;24.20;56.20
7666;DHT22;3875;46.562;4.898;2023-05-19T13:32:42;24.00;55.80
7666;DHT22;3875;46.562;4.898;2023-05-19T13:35:08;23.80;55.90
7666;DHT22;3875;46.562;4.898;2023-05-19T13:37:35;23.70;56.10
7666;DHT22;3875;46.562;4.898;2023-05-19T13:40:01;23.70;57.20
7666;DHT22;3875;46.562;4.898;2023-05-19T13:42:27;23.50;58.10
7666;DHT22;3875;46.562;4.898;2023-05-19T13:44:56;23.20;57.10
7666;DHT22;3875;46.562;4.898;2023-05-19T13:47:24;22.90;57.90
7666;DHT22;3875;46.562;4.898;2023-05-19T13:49:50;22.60;58.30
7666;DHT22;3875;46.562;4.898;2023-05-19T13:52:17;22.70;59.10
7666;DHT22;3875;46.562;4.898;2023-05-19T13:54:43;22.60;58.70
7666;DHT22;3875;46.562;4.898;2023-05-19T13:57:08;22.40;58.70
7666;DHT22;3875;46.562;4.898;2023-05-19T13:59:34;22.30;58.60
7666;DHT22;3875;46.562;4.898;2023-05-19T14:02:00;22.30;59.50
7666;DHT22;3875;46.562;4.898;2023-05-19T14:04:30;22.30;59.70
7666;DHT22;3875;46.562;4.898;2023-05-19T14:06:56;22.30;59.30
7666;DHT22;3875;46.562;4.898;2023-05-19T14:09:23;22.10;59.60
7666;DHT22;3875;46.562;4.898;2023-05-19T14:11:48;22.10;59.80
7666;DHT22;3875;46.562;4.898;2023-05-19T14:14:14;21.90;60.00
7666;DHT22;3875;46.562;4.898;2023-05-19T14:16:40;21.90;60.00
7666;DHT22;3875;46.562;4.898;2023-05-19T14:19:06;21.80;59.60
7666;DHT22;3875;46.562;4.898;2023-05-19T14:21:32;21.80;59.90
7666;DHT22;3875;46.562;4.898;2023-05-19T14:23:58;21.80;60.10
7666;DHT22;3875;46.562;4.898;2023-05-19T14:26:24;21.90;60.30
7666;DHT22;3875;46.562;4.898;2023-05-19T14:28:50;22.00;59.50
7666;DHT22;3875;46.562;4.898;2023-05-19T14:31:16;22.10;60.40
7666;DHT22;3875;46.562;4.898;2023-05-19T14:33:42;22.20;60.10
7666;DHT22;3875;46.562;4.898;2023-05-19T14:36:08;22.30;59.90
7666;DHT22;3875;46.562;4.898;2023-05-19T14:38:34;22.40;59.30
7666;DHT22;3875;46.562;4.898;2023-05-19T14:41:00;22.20;59.30
7666;DHT22;3875;46.562;4.898;2023-05-19T14:43:26;22.00;59.80
7666;DHT22;3875;46.562;4.898;2023-05-19T14:45:51;21.90;60.10
7666;DHT22;3875;46.562;4.898;2023-05-19T14:48:17;21.70;60.30
7666;DHT22;3875;46.562;4.898;2023-05-19T14:50:43;21.50;60.40
7666;DHT22;3875;46.562;4.898;2023-05-19T14:53:09;21.40;61.10
7666;DHT22;3875;46.562;4.898;2023-05-19T14:55:35;21.30;60.90
7666;DHT22;3875;46.562;4.898;2023-05-19T14:58:01;21.30;60.10
7666;DHT22;3875;46.562;4.898;2023-05-19T15:00:26;21.10;60.30
7666;DHT22;3875;46.562;4.898;2023-05-19T15:02:53;21.00;60.40
7666;DHT22;3875;46.562;4.898;2023-05-19T15:05:19;21.10;60.80
7666;DHT22;3875;46.562;4.898;2023-05-19T15:07:44;21.30;60.80
7666;DHT22;3875;46.562;4.898;2023-05-19T15:10:10;21.30;60.40
7666;DHT22;3875;46.562;4.898;2023-05-19T15:12:36;21.60;60.40
7666;DHT22;3875;46.562;4.898;2023-05-19T15:15:02;21.70;59.80
7666;DHT22;3875;46.562;4.898;2023-05-19T15:17:29;21.80;59.40
7666;DHT22;3875;46.562;4.898;2023-05-19T15:19:55;21.60;59.00
7666;DHT22;3875;46.562;4.898;2023-05-19T15:22:20;21.60;59.90
7666;DHT22;3875;46.562;4.898;2023-05-19T15:24:46;21.80;60.80
7666;DHT22;3875;46.562;4.898;2023-05-19T15:27:12;21.70;59.50
7666;DHT22;3875;46.562;4.898;2023-05-19T15:29:38;21.60;60.20
7666;DHT22;3875;46.562;4.898;2023-05-19T15:32:04;21.60;60.40
7666;DHT22;3875;46.562;4.898;2023-05-19T15:34:29;21.40;60.30
7666;DHT22;3875;46.562;4.898;2023-05-19T15:36:55;21.20;60.20
7666;DHT22;3875;46.562;4.898;2023-05-19T15:39:21;21.10;60.90
7666;DHT22;3875;46.562;4.898;2023-05-19T15:41:48;21.10;61.30
7666;DHT22;3875;46.562;4.898;2023-05-19T15:44:14;21.10;60.90
7666;DHT22;3875;46.562;4.898;2023-05-19T15:46:39;21.00;61.00
7666;DHT22;3875;46.562;4.898;2023-05-19T15:49:05;20.90;61.40
7666;DHT22;3875;46.562;4.898;2023-05-19T15:51:31;20.90;61.60
7666;DHT22;3875;46.562;4.898;2023-05-19T15:53:56;20.80;62.00
7666;DHT22;3875;46.562;4.898;2023-05-19T15:56:22;20.80;62.80
7666;DHT22;3875;46.562;4.898;2023-05-19T15:58:48;20.70;62.20
7666;DHT22;3875;46.562;4.898;2023-05-19T16:01:14;20.50;62.20
7666;DHT22;3875;46.562;4.898;2023-05-19T16:03:40;20.60;63.20
7666;DHT22;3875;46.562;4.898;2023-05-19T16:06:06;20.70;63.10
7666;DHT22;3875;46.562;4.898;2023-05-19T16:08:32;20.80;62.50
7666;DHT22;3875;46.562;4.898;2023-05-19T16:10:57;20.70;62.40
7666;DHT22;3875;46.562;4.898;2023-05-19T16:13:23;20.60;63.00
7666;DHT22;3875;46.562;4.898;2023-05-19T16:15:49;20.50;62.70
7666;DHT22;3875;46.562;4.898;2023-05-19T16:18:14;20.40;62.70
7666;DHT22;3875;46.562;4.898;2023-05-19T16:20:40;20.40;62.80
7666;DHT22;3875;46.562;4.898;2023-05-19T16:23:07;20.40;63.10
7666;DHT22;3875;46.562;4.898;2023-05-19T16:25:33;20.30;63.00